N56AT CYXS-KBLI
Flight info
| Callsign | N56AT |
|---|---|
| Flight time | 1h 3m |
| Altitude | 35000 |
| Route | YWL |
| Aircraft | STAR/L-DFHILM3ORUVWY/W |
Departure
| Time | 2026-05-05 23:30 |
|---|---|
| Airport | Prince George (International) Airport (CYXS) |
Arrival
| Time | 2026-05-06 00:34 |
|---|---|
| Airport | Bellingham International Airport (KBLI) |
| Time | Latitude | Longitude | Altitude | Speed | Heading |
|---|---|---|---|---|---|
| 2026-05-05 23:13 | 53.88361 | -122.67609 | 2229 ft | 0 kts | 122° |
| 2026-05-05 23:25 | 53.88363 | -122.67590 | 2227 ft | 8 kts | 43° |
| 2026-05-05 23:26 | 53.88408 | -122.67605 | 2228 ft | 14 kts | 360° |
| 2026-05-05 23:26 | 53.88521 | -122.67584 | 2228 ft | 20 kts | 329° |
| 2026-05-05 23:26 | 53.88590 | -122.67738 | 2235 ft | 19 kts | 319° |
| 2026-05-05 23:26 | 53.88737 | -122.67645 | 2238 ft | 29 kts | 31° |
| 2026-05-05 23:27 | 53.88935 | -122.67448 | 2238 ft | 28 kts | 28° |
| 2026-05-05 23:27 | 53.89022 | -122.67368 | 2237 ft | 19 kts | 34° |
| 2026-05-05 23:27 | 53.89158 | -122.67231 | 2234 ft | 10 kts | 27° |
| 2026-05-05 23:27 | 53.89164 | -122.67226 | 2234 ft | 0 kts | 27° |
| 2026-05-05 23:28 | 53.89171 | -122.67222 | 2234 ft | 7 kts | 18° |
| 2026-05-05 23:28 | 53.89266 | -122.67121 | 2237 ft | 25 kts | 35° |
| 2026-05-05 23:28 | 53.89415 | -122.66969 | 2240 ft | 11 kts | 49° |
| 2026-05-05 23:28 | 53.89397 | -122.66920 | 2240 ft | 0 kts | 168° |
| 2026-05-05 23:29 | 53.89351 | -122.66906 | 2239 ft | 27 kts | 171° |
| 2026-05-05 23:29 | 53.88971 | -122.66798 | 2225 ft | 82 kts | 170° |
| 2026-05-05 23:29 | 53.88237 | -122.66585 | 2226 ft | 132 kts | 171° |
| 2026-05-05 23:30 | 53.87170 | -122.66300 | 2324 ft | 172 kts | 168° |
| 2026-05-05 23:30 | 53.86384 | -122.66036 | 2639 ft | 173 kts | 164° |
| 2026-05-05 23:30 | 53.84818 | -122.65254 | 3366 ft | 176 kts | 164° |
| 2026-05-05 23:30 | 53.83694 | -122.64697 | 4192 ft | 161 kts | 164° |
| 2026-05-05 23:31 | 53.82662 | -122.64189 | 4995 ft | 152 kts | 165° |
| 2026-05-05 23:31 | 53.81675 | -122.63704 | 5773 ft | 145 kts | 165° |
| 2026-05-05 23:31 | 53.80707 | -122.63761 | 6463 ft | 141 kts | 201° |
| 2026-05-05 23:31 | 53.79753 | -122.64161 | 7097 ft | 143 kts | 185° |
| 2026-05-05 23:32 | 53.78747 | -122.64129 | 7750 ft | 146 kts | 179° |
| 2026-05-05 23:32 | 53.77731 | -122.64000 | 8417 ft | 148 kts | 178° |
| 2026-05-05 23:32 | 53.76701 | -122.63835 | 9102 ft | 150 kts | 179° |
| 2026-05-05 23:32 | 53.75655 | -122.63652 | 9814 ft | 152 kts | 179° |
| 2026-05-05 23:33 | 53.74591 | -122.63393 | 10464 ft | 156 kts | 174° |
| 2026-05-05 23:33 | 53.73516 | -122.63011 | 11120 ft | 159 kts | 173° |
| 2026-05-05 23:33 | 53.72793 | -122.62759 | 11562 ft | 161 kts | 174° |
| 2026-05-05 23:33 | 53.71682 | -122.62414 | 12235 ft | 164 kts | 175° |
| 2026-05-05 23:34 | 53.70547 | -122.62070 | 12893 ft | 167 kts | 175° |
| 2026-05-05 23:34 | 53.69394 | -122.61699 | 13561 ft | 170 kts | 175° |
| 2026-05-05 23:34 | 53.68221 | -122.61316 | 14180 ft | 173 kts | 175° |
| 2026-05-05 23:34 | 53.67029 | -122.60939 | 14783 ft | 175 kts | 176° |
| 2026-05-05 23:35 | 53.65821 | -122.60560 | 15375 ft | 177 kts | 176° |
| 2026-05-05 23:35 | 53.64604 | -122.60172 | 15952 ft | 180 kts | 176° |
| 2026-05-05 23:35 | 53.63354 | -122.59774 | 16528 ft | 184 kts | 176° |
| 2026-05-05 23:35 | 53.62088 | -122.59372 | 17109 ft | 186 kts | 176° |
| 2026-05-05 23:36 | 53.60805 | -122.58964 | 17706 ft | 189 kts | 176° |
| 2026-05-05 23:36 | 53.59509 | -122.58553 | 18290 ft | 191 kts | 176° |
| 2026-05-05 23:36 | 53.58197 | -122.58139 | 18798 ft | 193 kts | 176° |
| 2026-05-05 23:36 | 53.56873 | -122.57719 | 19307 ft | 195 kts | 176° |
| 2026-05-05 23:37 | 53.55535 | -122.57295 | 19810 ft | 197 kts | 176° |
| 2026-05-05 23:37 | 53.54182 | -122.56868 | 20325 ft | 198 kts | 176° |
| 2026-05-05 23:37 | 53.52821 | -122.56436 | 20836 ft | 200 kts | 176° |
| 2026-05-05 23:37 | 53.51443 | -122.56002 | 21340 ft | 202 kts | 176° |
| 2026-05-05 23:38 | 53.50049 | -122.55563 | 21842 ft | 204 kts | 176° |
| 2026-05-05 23:38 | 53.48669 | -122.55126 | 22316 ft | 205 kts | 176° |
| 2026-05-05 23:38 | 53.47257 | -122.54680 | 22786 ft | 208 kts | 177° |
| 2026-05-05 23:38 | 53.45829 | -122.54232 | 23280 ft | 210 kts | 177° |
| 2026-05-05 23:39 | 53.44386 | -122.53776 | 23735 ft | 212 kts | 177° |
| 2026-05-05 23:39 | 53.42929 | -122.53318 | 24140 ft | 213 kts | 177° |
| 2026-05-05 23:39 | 53.41469 | -122.52860 | 24546 ft | 214 kts | 177° |
| 2026-05-05 23:39 | 53.40001 | -122.52397 | 24949 ft | 215 kts | 177° |
| 2026-05-05 23:40 | 53.38523 | -122.51934 | 25345 ft | 217 kts | 177° |
| 2026-05-05 23:40 | 53.37024 | -122.51467 | 25682 ft | 221 kts | 177° |
| 2026-05-05 23:40 | 53.35504 | -122.50988 | 26046 ft | 223 kts | 176° |
| 2026-05-05 23:40 | 53.33984 | -122.50506 | 26437 ft | 221 kts | 177° |
| 2026-05-05 23:41 | 53.32469 | -122.50034 | 26833 ft | 221 kts | 178° |
| 2026-05-05 23:41 | 53.30952 | -122.49567 | 27199 ft | 222 kts | 177° |
| 2026-05-05 23:41 | 53.29443 | -122.49091 | 27554 ft | 224 kts | 177° |
| 2026-05-05 23:41 | 53.27907 | -122.48608 | 27903 ft | 225 kts | 177° |
| 2026-05-05 23:42 | 53.26363 | -122.48130 | 28235 ft | 226 kts | 177° |
| 2026-05-05 23:42 | 53.24810 | -122.47645 | 28588 ft | 227 kts | 177° |
| 2026-05-05 23:42 | 53.23250 | -122.47158 | 28932 ft | 229 kts | 177° |
| 2026-05-05 23:42 | 53.21684 | -122.46671 | 29257 ft | 230 kts | 177° |
| 2026-05-05 23:43 | 53.20102 | -122.46179 | 29561 ft | 232 kts | 177° |
| 2026-05-05 23:43 | 53.18517 | -122.45682 | 29879 ft | 232 kts | 178° |
| 2026-05-05 23:43 | 53.16926 | -122.45191 | 30160 ft | 233 kts | 178° |
| 2026-05-05 23:43 | 53.15323 | -122.44695 | 30395 ft | 234 kts | 178° |
| 2026-05-05 23:44 | 53.13716 | -122.44194 | 30630 ft | 236 kts | 177° |
| 2026-05-05 23:44 | 53.12102 | -122.43693 | 30856 ft | 237 kts | 178° |
| 2026-05-05 23:44 | 53.10462 | -122.43190 | 31026 ft | 241 kts | 177° |
| 2026-05-05 23:44 | 53.08802 | -122.42673 | 31219 ft | 244 kts | 176° |
| 2026-05-05 23:45 | 53.07134 | -122.42152 | 31429 ft | 244 kts | 177° |
| 2026-05-05 23:45 | 53.05454 | -122.41637 | 31633 ft | 245 kts | 177° |
| 2026-05-05 23:45 | 53.03774 | -122.41119 | 31825 ft | 246 kts | 176° |
| 2026-05-05 23:45 | 53.02108 | -122.40603 | 32014 ft | 247 kts | 177° |
| 2026-05-05 23:46 | 53.00413 | -122.40081 | 32189 ft | 248 kts | 177° |
| 2026-05-05 23:46 | 52.98709 | -122.39556 | 32373 ft | 249 kts | 177° |
| 2026-05-05 23:46 | 52.97001 | -122.39030 | 32542 ft | 250 kts | 177° |
| 2026-05-05 23:46 | 52.95291 | -122.38504 | 32718 ft | 251 kts | 177° |
| 2026-05-05 23:47 | 52.93566 | -122.37974 | 32884 ft | 252 kts | 176° |
| 2026-05-05 23:47 | 52.91841 | -122.37444 | 33043 ft | 252 kts | 177° |
| 2026-05-05 23:47 | 52.90111 | -122.36913 | 33197 ft | 253 kts | 176° |
| 2026-05-05 23:47 | 52.88377 | -122.36382 | 33340 ft | 254 kts | 176° |
| 2026-05-05 23:48 | 52.86632 | -122.35847 | 33481 ft | 255 kts | 176° |
| 2026-05-05 23:48 | 52.84885 | -122.35312 | 33615 ft | 256 kts | 176° |
| 2026-05-05 23:48 | 52.83122 | -122.34777 | 33702 ft | 259 kts | 176° |
| 2026-05-05 23:48 | 52.81350 | -122.34229 | 33827 ft | 260 kts | 176° |
| 2026-05-05 23:49 | 52.79570 | -122.33686 | 33947 ft | 260 kts | 176° |
| 2026-05-05 23:49 | 52.77790 | -122.33146 | 34057 ft | 261 kts | 176° |
| 2026-05-05 23:49 | 52.76006 | -122.32601 | 34169 ft | 261 kts | 176° |
| 2026-05-05 23:49 | 52.74217 | -122.32055 | 34360 ft | 262 kts | 176° |
| 2026-05-05 23:50 | 52.72432 | -122.31511 | 34654 ft | 260 kts | 176° |
| 2026-05-05 23:50 | 52.70644 | -122.30971 | 34843 ft | 263 kts | 176° |
| 2026-05-05 23:50 | 52.68823 | -122.30420 | 34933 ft | 270 kts | 176° |
| 2026-05-05 23:50 | 52.66944 | -122.29847 | 34971 ft | 278 kts | 176° |
| 2026-05-05 23:51 | 52.65015 | -122.29261 | 34999 ft | 286 kts | 175° |
| 2026-05-05 23:51 | 52.63029 | -122.28660 | 35010 ft | 294 kts | 175° |
| 2026-05-05 23:51 | 52.58945 | -122.27423 | 35020 ft | 306 kts | 175° |
| 2026-05-05 23:52 | 52.54688 | -122.26134 | 35020 ft | 315 kts | 174° |
| 2026-05-05 23:52 | 52.50318 | -122.24820 | 35022 ft | 322 kts | 174° |
| 2026-05-05 23:53 | 52.45878 | -122.23485 | 35024 ft | 326 kts | 174° |
| 2026-05-05 23:53 | 52.41398 | -122.22139 | 35022 ft | 329 kts | 174° |
| 2026-05-05 23:54 | 52.36883 | -122.20787 | 35021 ft | 331 kts | 174° |
| 2026-05-05 23:54 | 52.32343 | -122.19431 | 35033 ft | 332 kts | 174° |
| 2026-05-05 23:55 | 52.27772 | -122.18076 | 35026 ft | 338 kts | 176° |
| 2026-05-05 23:55 | 52.23073 | -122.17531 | 35024 ft | 340 kts | 183° |
| 2026-05-05 23:56 | 52.18372 | -122.17399 | 35023 ft | 339 kts | 189° |
| 2026-05-05 23:56 | 52.13687 | -122.18029 | 35018 ft | 339 kts | 188° |
| 2026-05-05 23:57 | 52.08988 | -122.18571 | 35022 ft | 339 kts | 189° |
| 2026-05-05 23:57 | 52.04288 | -122.19096 | 35025 ft | 339 kts | 189° |
| 2026-05-05 23:58 | 51.99579 | -122.19623 | 35015 ft | 340 kts | 190° |
| 2026-05-05 23:58 | 51.94853 | -122.20162 | 35020 ft | 341 kts | 189° |
| 2026-05-05 23:59 | 51.90147 | -122.20700 | 35020 ft | 341 kts | 189° |
| 2026-05-05 23:59 | 51.85411 | -122.21237 | 35022 ft | 341 kts | 189° |
| 2026-05-06 00:00 | 51.80679 | -122.21773 | 35013 ft | 341 kts | 189° |
| 2026-05-06 00:00 | 51.75947 | -122.22306 | 35005 ft | 341 kts | 189° |
| 2026-05-06 00:01 | 51.71213 | -122.22840 | 35014 ft | 341 kts | 189° |
| 2026-05-06 00:01 | 51.66479 | -122.23374 | 35008 ft | 341 kts | 189° |
| 2026-05-06 00:02 | 51.61740 | -122.23906 | 35008 ft | 341 kts | 189° |
| 2026-05-06 00:02 | 51.57008 | -122.24436 | 35009 ft | 341 kts | 189° |
| 2026-05-06 00:03 | 51.52273 | -122.24965 | 35005 ft | 341 kts | 189° |
| 2026-05-06 00:03 | 51.47533 | -122.25495 | 35006 ft | 342 kts | 189° |
| 2026-05-06 00:04 | 51.42825 | -122.26020 | 35006 ft | 341 kts | 189° |
| 2026-05-06 00:04 | 51.38090 | -122.26545 | 35009 ft | 341 kts | 189° |
| 2026-05-06 00:05 | 51.31010 | -122.27333 | 35003 ft | 339 kts | 189° |
| 2026-05-06 00:06 | 51.26308 | -122.27849 | 35007 ft | 339 kts | 189° |
| 2026-05-06 00:06 | 51.21613 | -122.28367 | 35009 ft | 338 kts | 189° |
| 2026-05-06 00:07 | 51.16918 | -122.28888 | 35013 ft | 339 kts | 189° |
| 2026-05-06 00:07 | 51.12198 | -122.29402 | 35009 ft | 341 kts | 189° |
| 2026-05-06 00:08 | 51.07468 | -122.29920 | 35007 ft | 340 kts | 189° |
| 2026-05-06 00:08 | 51.02775 | -122.30435 | 35004 ft | 339 kts | 188° |
| 2026-05-06 00:09 | 50.98090 | -122.30958 | 35007 ft | 338 kts | 189° |
| 2026-05-06 00:09 | 50.93395 | -122.31457 | 34995 ft | 337 kts | 189° |
| 2026-05-06 00:10 | 50.88723 | -122.31967 | 35000 ft | 338 kts | 189° |
| 2026-05-06 00:10 | 50.84033 | -122.32476 | 34988 ft | 338 kts | 189° |
| 2026-05-06 00:11 | 50.79290 | -122.32987 | 34624 ft | 352 kts | 189° |
| 2026-05-06 00:11 | 50.76799 | -122.33263 | 34158 ft | 365 kts | 188° |
| 2026-05-06 00:11 | 50.74224 | -122.33535 | 33645 ft | 375 kts | 188° |
| 2026-05-06 00:11 | 50.71600 | -122.33822 | 33109 ft | 380 kts | 188° |
| 2026-05-06 00:12 | 50.68948 | -122.34106 | 32582 ft | 381 kts | 187° |
| 2026-05-06 00:12 | 50.66306 | -122.34385 | 32073 ft | 380 kts | 188° |
| 2026-05-06 00:12 | 50.63666 | -122.34680 | 31569 ft | 381 kts | 188° |
| 2026-05-06 00:12 | 50.61019 | -122.34960 | 31055 ft | 382 kts | 188° |
| 2026-05-06 00:13 | 50.58400 | -122.35238 | 30587 ft | 382 kts | 187° |
| 2026-05-06 00:13 | 50.55750 | -122.35522 | 30091 ft | 381 kts | 188° |
| 2026-05-06 00:13 | 50.53088 | -122.35808 | 29538 ft | 378 kts | 187° |
| 2026-05-06 00:13 | 50.50511 | -122.36086 | 28994 ft | 374 kts | 188° |
| 2026-05-06 00:14 | 50.47915 | -122.36360 | 28599 ft | 375 kts | 187° |
| 2026-05-06 00:14 | 50.45311 | -122.36642 | 28198 ft | 376 kts | 188° |
| 2026-05-06 00:14 | 50.42718 | -122.36917 | 27963 ft | 372 kts | 188° |
| 2026-05-06 00:14 | 50.40130 | -122.37191 | 27554 ft | 373 kts | 188° |
| 2026-05-06 00:15 | 50.37557 | -122.37465 | 27294 ft | 370 kts | 188° |
| 2026-05-06 00:15 | 50.34987 | -122.37739 | 26992 ft | 369 kts | 188° |
| 2026-05-06 00:15 | 50.32426 | -122.38013 | 26746 ft | 370 kts | 188° |
| 2026-05-06 00:15 | 50.29853 | -122.38282 | 26493 ft | 371 kts | 187° |
| 2026-05-06 00:16 | 50.27270 | -122.38556 | 26238 ft | 373 kts | 188° |
| 2026-05-06 00:16 | 50.24674 | -122.38834 | 25992 ft | 374 kts | 187° |
| 2026-05-06 00:16 | 50.22075 | -122.39105 | 25748 ft | 375 kts | 187° |
| 2026-05-06 00:16 | 50.19466 | -122.39381 | 25513 ft | 376 kts | 187° |
| 2026-05-06 00:17 | 50.16855 | -122.39656 | 25240 ft | 376 kts | 187° |
| 2026-05-06 00:17 | 50.14255 | -122.39926 | 25005 ft | 374 kts | 187° |
| 2026-05-06 00:17 | 50.11652 | -122.40211 | 24754 ft | 375 kts | 187° |
| 2026-05-06 00:17 | 50.09054 | -122.40473 | 24539 ft | 374 kts | 187° |
| 2026-05-06 00:18 | 50.06518 | -122.40735 | 24770 ft | 336 kts | 187° |
| 2026-05-06 00:18 | 50.04153 | -122.40999 | 24771 ft | 347 kts | 188° |
| 2026-05-06 00:18 | 50.01735 | -122.41258 | 24533 ft | 358 kts | 187° |
| 2026-05-06 00:18 | 49.99222 | -122.41495 | 24300 ft | 365 kts | 187° |
| 2026-05-06 00:19 | 49.96668 | -122.41787 | 23933 ft | 373 kts | 187° |
| 2026-05-06 00:19 | 49.94048 | -122.42046 | 23489 ft | 380 kts | 187° |
| 2026-05-06 00:19 | 49.91406 | -122.42321 | 22952 ft | 382 kts | 187° |
| 2026-05-06 00:19 | 49.88743 | -122.42609 | 22420 ft | 384 kts | 187° |
| 2026-05-06 00:20 | 49.86064 | -122.42877 | 21898 ft | 386 kts | 187° |
| 2026-05-06 00:20 | 49.83384 | -122.43161 | 21393 ft | 387 kts | 187° |
| 2026-05-06 00:20 | 49.80707 | -122.43437 | 20895 ft | 384 kts | 187° |
| 2026-05-06 00:20 | 49.78049 | -122.43712 | 20403 ft | 381 kts | 186° |
| 2026-05-06 00:21 | 49.76303 | -122.43894 | 20081 ft | 379 kts | 186° |
| 2026-05-06 00:21 | 49.73686 | -122.44169 | 19603 ft | 373 kts | 186° |
| 2026-05-06 00:21 | 49.71097 | -122.44429 | 19127 ft | 371 kts | 186° |
| 2026-05-06 00:21 | 49.68529 | -122.44702 | 18664 ft | 369 kts | 186° |
| 2026-05-06 00:22 | 49.65975 | -122.44963 | 18191 ft | 367 kts | 186° |
| 2026-05-06 00:22 | 49.63436 | -122.45215 | 17675 ft | 364 kts | 186° |
| 2026-05-06 00:22 | 49.60915 | -122.45499 | 17163 ft | 363 kts | 186° |
| 2026-05-06 00:22 | 49.58401 | -122.45733 | 16652 ft | 359 kts | 186° |
| 2026-05-06 00:23 | 49.55923 | -122.45999 | 16158 ft | 355 kts | 186° |
| 2026-05-06 00:23 | 49.53452 | -122.46257 | 15658 ft | 353 kts | 185° |
| 2026-05-06 00:23 | 49.51026 | -122.46495 | 15180 ft | 348 kts | 186° |
| 2026-05-06 00:23 | 49.48620 | -122.46754 | 14708 ft | 345 kts | 185° |
| 2026-05-06 00:24 | 49.46241 | -122.46982 | 14246 ft | 341 kts | 185° |
| 2026-05-06 00:24 | 49.43884 | -122.47233 | 13775 ft | 338 kts | 186° |
| 2026-05-06 00:24 | 49.41574 | -122.47470 | 13264 ft | 336 kts | 185° |
| 2026-05-06 00:24 | 49.39251 | -122.47706 | 12749 ft | 334 kts | 185° |
| 2026-05-06 00:25 | 49.36945 | -122.47936 | 12190 ft | 328 kts | 184° |
| 2026-05-06 00:25 | 49.34700 | -122.48173 | 11695 ft | 319 kts | 185° |
| 2026-05-06 00:25 | 49.32508 | -122.48394 | 11211 ft | 312 kts | 184° |
| 2026-05-06 00:25 | 49.30387 | -122.48594 | 10767 ft | 296 kts | 184° |
| 2026-05-06 00:26 | 49.28373 | -122.48827 | 10415 ft | 287 kts | 185° |
| 2026-05-06 00:26 | 49.26393 | -122.49016 | 10062 ft | 285 kts | 183° |
| 2026-05-06 00:26 | 49.24415 | -122.49205 | 9693 ft | 284 kts | 184° |
| 2026-05-06 00:26 | 49.22449 | -122.49419 | 9304 ft | 281 kts | 184° |
| 2026-05-06 00:27 | 49.20502 | -122.49609 | 8920 ft | 280 kts | 184° |
| 2026-05-06 00:27 | 49.18566 | -122.49805 | 8540 ft | 277 kts | 185° |
| 2026-05-06 00:27 | 49.16649 | -122.50002 | 8166 ft | 275 kts | 185° |
| 2026-05-06 00:27 | 49.14768 | -122.50189 | 7801 ft | 273 kts | 185° |
| 2026-05-06 00:28 | 49.12852 | -122.50385 | 7430 ft | 271 kts | 186° |
| 2026-05-06 00:28 | 49.11009 | -122.50718 | 7072 ft | 268 kts | 192° |
| 2026-05-06 00:28 | 49.09185 | -122.51289 | 6715 ft | 267 kts | 194° |
| 2026-05-06 00:28 | 49.07383 | -122.51912 | 6355 ft | 264 kts | 195° |
| 2026-05-06 00:29 | 49.05669 | -122.52859 | 5981 ft | 261 kts | 208° |
| 2026-05-06 00:29 | 49.04096 | -122.54220 | 5608 ft | 260 kts | 213° |
| 2026-05-06 00:29 | 49.02557 | -122.55654 | 5233 ft | 259 kts | 213° |
| 2026-05-06 00:29 | 49.01013 | -122.57084 | 4868 ft | 258 kts | 212° |
| 2026-05-06 00:30 | 48.99358 | -122.58147 | 4489 ft | 259 kts | 198° |
| 2026-05-06 00:30 | 48.97567 | -122.58434 | 4111 ft | 260 kts | 181° |
| 2026-05-06 00:30 | 48.95769 | -122.58278 | 3743 ft | 257 kts | 176° |
| 2026-05-06 00:30 | 48.94007 | -122.58072 | 3387 ft | 251 kts | 175° |
| 2026-05-06 00:31 | 48.92286 | -122.57859 | 3008 ft | 246 kts | 175° |
| 2026-05-06 00:31 | 48.90593 | -122.57636 | 2633 ft | 242 kts | 175° |
| 2026-05-06 00:31 | 48.88922 | -122.57412 | 2249 ft | 238 kts | 175° |
| 2026-05-06 00:31 | 48.87304 | -122.57153 | 1697 ft | 237 kts | 171° |
| 2026-05-06 00:32 | 48.85773 | -122.56426 | 1262 ft | 223 kts | 158° |
| 2026-05-06 00:32 | 48.84451 | -122.55451 | 1179 ft | 194 kts | 155° |
| 2026-05-06 00:32 | 48.83349 | -122.54658 | 1101 ft | 155 kts | 157° |
| 2026-05-06 00:32 | 48.82402 | -122.54269 | 648 ft | 129 kts | 167° |
| 2026-05-06 00:33 | 48.81619 | -122.54001 | 494 ft | 105 kts | 163° |
| 2026-05-06 00:33 | 48.80938 | -122.53813 | 330 ft | 97 kts | 173° |
| 2026-05-06 00:33 | 48.80230 | -122.53750 | 208 ft | 108 kts | 179° |
| 2026-05-06 00:33 | 48.79514 | -122.53744 | 157 ft | 91 kts | 180° |
| 2026-05-06 00:34 | 48.79064 | -122.53752 | 160 ft | 19 kts | 176° |
| 2026-05-06 00:34 | 48.79051 | -122.53664 | 160 ft | 20 kts | 43° |
| 2026-05-06 00:34 | 48.79154 | -122.53535 | 160 ft | 22 kts | 44° |
| 2026-05-06 00:34 | 48.79271 | -122.53338 | 159 ft | 26 kts | 57° |
| 2026-05-06 00:35 | 48.79381 | -122.53189 | 159 ft | 13 kts | 350° |
| 2026-05-06 00:35 | 48.79392 | -122.53197 | 159 ft | 0 kts | 320° |